createdAt,value
2019-06-26T00:00:04.251Z,24.13
2019-06-26T00:01:04.282Z,24.19
2019-06-26T00:02:04.229Z,24.21
2019-06-26T00:03:04.221Z,24.18
2019-06-26T00:04:04.234Z,24.22
2019-06-26T00:05:04.198Z,24.13
2019-06-26T00:06:04.180Z,24.22
2019-06-26T00:07:04.175Z,24.13
2019-06-26T00:08:04.163Z,24.07
2019-06-26T00:09:04.147Z,24.03
2019-06-26T00:10:04.142Z,23.97
2019-06-26T00:11:04.126Z,23.82
2019-06-26T00:12:04.126Z,23.73
2019-06-26T00:13:04.105Z,23.76
2019-06-26T00:14:04.098Z,23.69
2019-06-26T00:15:04.092Z,23.71
2019-06-26T00:16:04.077Z,23.76
2019-06-26T00:17:04.074Z,23.74
2019-06-26T00:18:04.049Z,23.76
2019-06-26T00:19:04.039Z,23.79
2019-06-26T00:20:04.037Z,23.78
2019-06-26T00:21:04.026Z,23.88
2019-06-26T00:22:04.012Z,24.04
2019-06-26T00:23:04.003Z,24.15
2019-06-26T00:24:03.988Z,24.19
2019-06-26T00:25:03.976Z,24.43
2019-06-26T00:26:03.985Z,24.40
2019-06-26T00:27:03.963Z,24.45
2019-06-26T00:28:03.937Z,24.43
2019-06-26T00:29:03.947Z,24.44
2019-06-26T00:30:03.915Z,24.34
2019-06-26T00:31:03.909Z,24.25
2019-06-26T00:32:03.897Z,24.16
2019-06-26T00:33:03.885Z,24.22
2019-06-26T00:34:03.874Z,24.19
2019-06-26T00:35:03.862Z,24.21
2019-06-26T00:36:03.849Z,24.41
2019-06-26T00:37:03.838Z,24.47
2019-06-26T00:38:03.833Z,24.58
2019-06-26T00:39:03.842Z,24.55
2019-06-26T00:40:03.812Z,24.41
2019-06-26T00:41:03.802Z,24.25
2019-06-26T00:42:03.786Z,24.13
2019-06-26T00:43:03.775Z,23.98
2019-06-26T00:44:03.765Z,24.08
2019-06-26T00:45:03.757Z,23.92
2019-06-26T00:46:03.742Z,23.92
2019-06-26T00:47:03.742Z,23.86
2019-06-26T00:48:03.724Z,23.79
2019-06-26T00:49:03.719Z,23.67
2019-06-26T00:50:03.706Z,23.64
2019-06-26T00:51:03.689Z,23.59
2019-06-26T00:52:03.684Z,23.59
2019-06-26T00:53:03.673Z,23.61
2019-06-26T00:54:03.665Z,23.67
2019-06-26T00:55:03.641Z,23.85
2019-06-26T00:56:03.640Z,24.00
2019-06-26T00:57:03.619Z,24.13
2019-06-26T00:58:03.609Z,24.29
2019-06-26T00:59:03.601Z,24.28
2019-06-26T01:00:03.628Z,24.34
2019-06-26T01:01:03.584Z,24.15
2019-06-26T01:02:03.568Z,24.06
2019-06-26T01:03:03.557Z,23.96
2019-06-26T01:04:03.583Z,23.78
2019-06-26T01:05:03.535Z,23.73
2019-06-26T01:06:03.524Z,23.66
2019-06-26T01:07:03.511Z,23.74
2019-06-26T01:08:03.513Z,23.60
2019-06-26T01:09:03.486Z,23.56
2019-06-26T01:10:03.478Z,23.49
2019-06-26T01:11:03.463Z,23.39
2019-06-26T01:12:03.468Z,23.44
2019-06-26T01:13:03.491Z,23.45
2019-06-26T01:14:03.437Z,23.36
2019-06-26T01:15:03.464Z,23.29
2019-06-26T01:16:03.417Z,23.22
2019-06-26T01:17:03.411Z,23.13
2019-06-26T01:18:03.392Z,23.29
2019-06-26T01:19:03.382Z,23.41
2019-06-26T01:20:03.407Z,23.37
2019-06-26T01:21:03.359Z,23.45
2019-06-26T01:22:03.501Z,23.51
2019-06-26T01:23:03.341Z,23.41
2019-06-26T01:24:03.396Z,23.34
2019-06-26T01:25:03.313Z,23.29
2019-06-26T01:26:03.305Z,23.21
2019-06-26T01:27:03.301Z,23.22
2019-06-26T01:28:03.333Z,23.11
2019-06-26T01:29:03.266Z,23.18
2019-06-26T01:30:03.628Z,23.37
2019-06-26T01:31:03.243Z,23.48
2019-06-26T01:32:03.234Z,23.37
2019-06-26T01:33:03.226Z,23.52
2019-06-26T01:34:03.213Z,23.48
2019-06-26T01:35:03.199Z,23.55
2019-06-26T01:36:03.197Z,23.56
2019-06-26T01:37:03.185Z,23.69
2019-06-26T01:38:03.174Z,23.70
2019-06-26T01:39:03.179Z,23.66
2019-06-26T01:40:03.148Z,23.59
2019-06-26T01:41:03.137Z,23.56
2019-06-26T01:42:03.138Z,23.42
2019-06-26T01:43:03.112Z,23.34
2019-06-26T01:44:14.094Z,23.28
2019-06-26T01:45:04.095Z,23.25
2019-06-26T01:46:03.079Z,23.21
2019-06-26T01:47:03.081Z,23.15
2019-06-26T01:48:03.102Z,23.06
2019-06-26T01:49:03.052Z,22.95
2019-06-26T01:50:03.040Z,22.92
2019-06-26T01:51:03.029Z,22.83
2019-06-26T01:52:03.027Z,22.77
2019-06-26T01:53:03.001Z,22.70
2019-06-26T01:54:02.999Z,22.70
2019-06-26T01:55:02.981Z,22.61
2019-06-26T01:56:02.973Z,22.58
2019-06-26T01:57:02.979Z,22.52
2019-06-26T01:58:02.958Z,22.41
2019-06-26T01:59:02.939Z,22.85
2019-06-26T02:00:02.926Z,22.89
2019-06-26T02:01:02.940Z,22.98
2019-06-26T02:02:02.905Z,23.15
2019-06-26T02:03:02.889Z,23.11
2019-06-26T02:04:02.887Z,23.14
2019-06-26T02:05:02.874Z,23.25
2019-06-26T02:06:02.870Z,23.15
2019-06-26T02:07:02.884Z,23.06
2019-06-26T02:08:02.842Z,22.99
2019-06-26T02:09:02.844Z,22.83
2019-06-26T02:10:02.821Z,22.76
2019-06-26T02:11:02.814Z,22.66
2019-06-26T02:12:02.803Z,22.48
2019-06-26T02:13:02.789Z,22.40
2019-06-26T02:14:02.781Z,22.40
2019-06-26T02:15:02.766Z,22.23
2019-06-26T02:16:02.755Z,22.19
2019-06-26T02:17:02.742Z,22.09
2019-06-26T02:18:02.734Z,22.11
2019-06-26T02:19:02.721Z,22.11
2019-06-26T02:20:02.711Z,22.11
2019-06-26T02:21:02.704Z,22.21
2019-06-26T02:22:02.695Z,22.30
2019-06-26T02:23:02.681Z,22.36
2019-06-26T02:24:02.676Z,22.43
2019-06-26T02:25:02.851Z,22.49
2019-06-26T02:26:02.702Z,22.61
2019-06-26T02:27:02.689Z,22.58
2019-06-26T02:28:02.633Z,22.61
2019-06-26T02:29:02.616Z,22.93
2019-06-26T02:30:02.603Z,23.39
2019-06-26T02:31:02.610Z,23.37
2019-06-26T02:32:02.588Z,23.31
2019-06-26T02:33:02.572Z,23.15
2019-06-26T02:34:02.565Z,23.18
2019-06-26T02:35:02.555Z,23.25
2019-06-26T02:36:02.540Z,23.21
2019-06-26T02:37:02.535Z,23.33
2019-06-26T02:38:02.518Z,23.29
2019-06-26T02:39:02.508Z,23.29
2019-06-26T02:40:02.491Z,23.29
2019-06-26T02:41:02.520Z,23.25
2019-06-26T02:42:02.487Z,23.17
2019-06-26T02:43:06.691Z,23.11
2019-06-26T02:44:02.455Z,23.08
2019-06-26T02:45:02.443Z,23.01
2019-06-26T02:46:02.434Z,22.98
2019-06-26T02:47:18.616Z,22.92
2019-06-26T02:48:03.409Z,22.71
2019-06-26T02:49:02.397Z,22.73
2019-06-26T02:50:02.389Z,22.56
2019-06-26T02:51:02.386Z,22.52
2019-06-26T02:52:02.371Z,22.36
2019-06-26T02:53:02.362Z,22.49
2019-06-26T02:54:02.345Z,22.74
2019-06-26T02:55:02.345Z,22.95
2019-06-26T02:56:02.362Z,23.04
2019-06-26T02:57:02.309Z,22.99
2019-06-26T02:58:02.307Z,22.93
2019-06-26T02:59:02.294Z,23.03
2019-06-26T03:00:02.334Z,23.01
2019-06-26T03:01:02.269Z,23.10
2019-06-26T03:02:02.259Z,23.08
2019-06-26T03:03:02.251Z,22.96
2019-06-26T03:04:02.248Z,22.99
2019-06-26T03:05:02.513Z,22.96
2019-06-26T03:06:02.212Z,23.01
2019-06-26T03:07:02.218Z,23.13
2019-06-26T03:08:02.195Z,23.14
2019-06-26T03:09:02.260Z,23.13
2019-06-26T03:10:02.201Z,23.06
2019-06-26T03:11:02.173Z,22.93
2019-06-26T03:12:02.159Z,23.14
2019-06-26T03:13:02.143Z,23.34
2019-06-26T03:14:02.146Z,23.48
2019-06-26T03:15:08.793Z,23.39
2019-06-26T03:16:03.109Z,23.29
2019-06-26T03:17:02.097Z,23.22
2019-06-26T03:18:02.095Z,23.21
2019-06-26T03:19:02.091Z,23.33
2019-06-26T03:20:02.098Z,23.37
2019-06-26T03:21:02.093Z,23.25
2019-06-26T03:22:02.049Z,23.25
2019-06-26T03:23:02.037Z,23.13
2019-06-26T03:24:02.027Z,23.28
2019-06-26T03:25:02.077Z,23.28
2019-06-26T03:26:02.011Z,23.29
2019-06-26T03:27:01.996Z,23.42
2019-06-26T03:28:01.978Z,23.54
2019-06-26T03:29:01.971Z,23.52
2019-06-26T03:30:01.963Z,23.46
2019-06-26T03:31:01.957Z,23.41
2019-06-26T03:32:01.942Z,23.44
2019-06-26T03:33:01.926Z,23.37
2019-06-26T03:34:01.924Z,23.34
2019-06-26T03:35:01.909Z,23.29
2019-06-26T03:36:01.897Z,23.36
2019-06-26T03:37:01.883Z,23.22
2019-06-26T03:38:01.887Z,23.29
2019-06-26T03:39:01.865Z,23.25
2019-06-26T03:40:01.984Z,23.33
2019-06-26T03:41:01.844Z,23.26
2019-06-26T03:42:01.832Z,23.26
2019-06-26T03:43:01.822Z,23.29
2019-06-26T03:44:01.848Z,23.34
2019-06-26T03:45:01.916Z,23.48
2019-06-26T03:46:01.787Z,23.59
2019-06-26T03:47:01.772Z,23.60
2019-06-26T03:48:01.765Z,23.66
2019-06-26T03:49:01.759Z,23.79
2019-06-26T03:50:01.745Z,23.79
2019-06-26T03:51:01.730Z,23.85
2019-06-26T03:52:01.728Z,23.81
2019-06-26T03:53:01.717Z,23.81
2019-06-26T03:54:01.702Z,23.88
2019-06-26T03:55:01.692Z,23.84
2019-06-26T03:56:01.682Z,23.78
2019-06-26T03:57:01.670Z,23.73
2019-06-26T03:58:01.654Z,23.89
2019-06-26T03:59:01.644Z,23.96
2019-06-26T04:00:02.001Z,23.92
2019-06-26T04:01:01.631Z,23.85
2019-06-26T04:02:01.612Z,23.70
2019-06-26T04:03:01.604Z,23.67
2019-06-26T04:04:01.595Z,23.59
2019-06-26T04:05:01.618Z,23.59
2019-06-26T04:06:01.566Z,23.60
2019-06-26T04:07:01.570Z,23.59
2019-06-26T04:08:01.551Z,23.59
2019-06-26T04:09:01.534Z,23.56
2019-06-26T04:10:01.525Z,23.55
2019-06-26T04:11:01.513Z,23.51
2019-06-26T04:12:01.502Z,23.41
2019-06-26T04:13:01.490Z,23.37
2019-06-26T04:14:01.480Z,23.23
2019-06-26T04:15:01.571Z,23.33
2019-06-26T04:16:01.958Z,23.36
2019-06-26T04:17:01.445Z,23.45
2019-06-26T04:18:01.433Z,23.41
2019-06-26T04:19:01.422Z,23.41
2019-06-26T04:20:01.413Z,23.54
2019-06-26T04:21:01.407Z,23.59
2019-06-26T04:22:01.400Z,23.61
2019-06-26T04:23:01.384Z,23.59
2019-06-26T04:24:01.366Z,23.56
2019-06-26T04:25:01.358Z,23.76
2019-06-26T04:26:01.349Z,23.71
2019-06-26T04:27:01.340Z,23.48
2019-06-26T04:28:01.326Z,23.37
2019-06-26T04:29:01.312Z,23.29
2019-06-26T04:30:01.309Z,23.15
2019-06-26T04:31:01.289Z,23.31
2019-06-26T04:32:01.283Z,23.44
2019-06-26T04:33:01.278Z,23.56
2019-06-26T04:34:01.289Z,23.78
2019-06-26T04:35:01.286Z,24.21
2019-06-26T04:36:01.239Z,24.62
2019-06-26T04:37:01.230Z,25.12
2019-06-26T04:38:01.215Z,25.46
2019-06-26T04:39:01.208Z,25.41
2019-06-26T04:40:01.194Z,25.36
2019-06-26T04:41:01.193Z,25.19
2019-06-26T04:42:01.193Z,25.03
2019-06-26T04:43:01.167Z,24.91
2019-06-26T04:44:01.150Z,24.82
2019-06-26T04:45:01.294Z,24.79
2019-06-26T04:46:01.133Z,24.71
2019-06-26T04:47:01.144Z,24.62
2019-06-26T04:48:01.105Z,24.60
2019-06-26T04:49:01.095Z,24.51
2019-06-26T04:50:01.083Z,24.55
2019-06-26T04:51:01.088Z,24.51
2019-06-26T04:52:01.062Z,24.47
2019-06-26T04:53:01.053Z,24.66
2019-06-26T04:54:01.047Z,24.51
2019-06-26T04:55:01.053Z,24.48
2019-06-26T04:56:01.024Z,24.43
2019-06-26T04:57:01.012Z,24.36
2019-06-26T04:58:01.004Z,24.31
2019-06-26T04:59:00.985Z,24.41
2019-06-26T05:00:01.003Z,24.29
2019-06-26T05:01:00.973Z,24.45
2019-06-26T05:02:00.950Z,24.40
2019-06-26T05:03:00.943Z,24.19
2019-06-26T05:04:00.940Z,24.10
2019-06-26T05:05:00.923Z,24.21
2019-06-26T05:06:00.914Z,24.47
2019-06-26T05:07:00.914Z,24.68
2019-06-26T05:08:01.009Z,25.18
2019-06-26T05:09:00.884Z,25.41
2019-06-26T05:10:00.872Z,25.64
2019-06-26T05:11:00.862Z,25.83
2019-06-26T05:12:00.848Z,25.74
2019-06-26T05:13:00.842Z,25.78
2019-06-26T05:14:00.941Z,25.71
2019-06-26T05:15:00.830Z,25.67
2019-06-26T05:16:13.825Z,25.74
2019-06-26T05:17:01.826Z,26.08
2019-06-26T05:18:00.789Z,26.49
2019-06-26T05:19:00.779Z,26.88
2019-06-26T05:20:00.775Z,27.42
2019-06-26T05:21:00.754Z,27.85
2019-06-26T05:22:00.747Z,28.32
2019-06-26T05:23:00.739Z,28.74
2019-06-26T05:24:00.727Z,29.29
2019-06-26T05:25:00.712Z,29.73
2019-06-26T05:26:00.696Z,30.18
2019-06-26T05:27:00.693Z,30.20
2019-06-26T05:28:00.675Z,30.21
2019-06-26T05:29:00.665Z,30.65
2019-06-26T05:30:00.656Z,31.12
2019-06-26T05:31:00.645Z,31.49
2019-06-26T05:32:00.636Z,32.01
2019-06-26T05:33:00.624Z,32.26
2019-06-26T05:34:00.618Z,32.32
2019-06-26T05:35:00.604Z,32.24
2019-06-26T05:36:00.590Z,32.64
2019-06-26T05:37:00.579Z,32.28
2019-06-26T05:38:00.581Z,31.54
2019-06-26T05:39:00.561Z,31.41
2019-06-26T05:40:00.567Z,31.87
2019-06-26T05:41:00.544Z,31.52
2019-06-26T05:42:00.576Z,31.68
2019-06-26T05:43:00.518Z,31.86
2019-06-26T05:44:00.509Z,32.01
2019-06-26T05:45:00.493Z,32.17
2019-06-26T05:46:00.490Z,32.09
2019-06-26T05:47:00.482Z,31.82
2019-06-26T05:48:00.465Z,31.07
2019-06-26T05:49:00.462Z,31.34
2019-06-26T05:50:00.452Z,31.17
2019-06-26T05:51:00.438Z,31.34
2019-06-26T05:52:02.208Z,31.87
2019-06-26T05:53:00.420Z,32.65
2019-06-26T05:54:00.421Z,33.09
2019-06-26T05:55:00.458Z,33.63
2019-06-26T05:56:00.401Z,34.10
2019-06-26T05:57:00.422Z,34.66
2019-06-26T05:58:00.357Z,34.92
2019-06-26T05:59:00.363Z,34.94
2019-06-26T06:00:00.362Z,35.13
2019-06-26T06:01:00.326Z,35.36
2019-06-26T06:02:00.313Z,34.99
2019-06-26T06:03:00.309Z,34.73
2019-06-26T06:04:00.296Z,34.28
2019-06-26T06:05:00.288Z,34.67
2019-06-26T06:06:00.272Z,35.01
2019-06-26T06:07:00.282Z,35.29
2019-06-26T06:08:00.258Z,35.85
2019-06-26T06:09:00.259Z,36.15
2019-06-26T06:10:00.235Z,34.98
2019-06-26T06:11:00.224Z,34.10
2019-06-26T06:12:00.209Z,33.98
2019-06-26T06:13:00.212Z,33.93
2019-06-26T06:14:00.190Z,33.47
2019-06-26T06:15:00.182Z,33.98
2019-06-26T06:16:00.176Z,34.01
2019-06-26T06:17:00.161Z,34.00
2019-06-26T06:18:00.154Z,33.67
2019-06-26T06:19:00.149Z,33.66
2019-06-26T06:20:00.134Z,33.33
2019-06-26T06:21:00.117Z,33.35
2019-06-26T06:22:00.114Z,33.70
2019-06-26T06:23:00.110Z,34.59
2019-06-26T06:24:00.105Z,34.56
2019-06-26T06:25:00.105Z,33.62
2019-06-26T06:26:00.066Z,33.98
2019-06-26T06:27:00.057Z,34.13
2019-06-26T06:28:00.045Z,33.45
2019-06-26T06:29:00.038Z,33.85
2019-06-26T06:30:00.025Z,33.54
2019-06-26T06:31:00.388Z,33.78
2019-06-26T06:32:00.015Z,33.35
2019-06-26T06:32:59.995Z,33.41
2019-06-26T06:33:59.985Z,33.58
2019-06-26T06:34:59.989Z,33.71
2019-06-26T06:35:59.974Z,34.44
2019-06-26T06:36:59.959Z,34.38
2019-06-26T06:37:59.953Z,34.08
2019-06-26T06:38:59.937Z,34.47
2019-06-26T06:39:59.928Z,35.14
2019-06-26T06:40:59.917Z,35.90
2019-06-26T06:41:59.903Z,35.98
2019-06-26T06:42:59.895Z,36.47
2019-06-26T06:43:59.881Z,36.11
2019-06-26T06:44:59.877Z,36.03
2019-06-26T06:45:59.872Z,35.73
2019-06-26T06:47:04.292Z,36.20
2019-06-26T06:47:59.845Z,36.23
2019-06-26T06:48:59.837Z,36.69
2019-06-26T06:49:59.831Z,37.12
2019-06-26T06:50:59.818Z,37.49
2019-06-26T06:51:59.817Z,37.96
2019-06-26T06:52:59.800Z,38.57
2019-06-26T06:53:59.789Z,38.93
2019-06-26T06:54:59.779Z,38.91
2019-06-26T06:55:59.769Z,38.91
2019-06-26T06:56:59.759Z,38.79
2019-06-26T06:57:59.745Z,38.23
2019-06-26T06:58:59.737Z,37.34
2019-06-26T06:59:59.733Z,36.60
2019-06-26T07:00:59.718Z,36.57
2019-06-26T07:01:59.711Z,36.44
2019-06-26T07:02:59.708Z,37.32
2019-06-26T07:03:59.688Z,37.15
2019-06-26T07:04:59.676Z,36.97
2019-06-26T07:05:59.669Z,36.23
2019-06-26T07:06:59.661Z,36.27
2019-06-26T07:07:59.656Z,36.15
2019-06-26T07:08:59.734Z,36.17
2019-06-26T07:09:59.650Z,36.64
2019-06-26T07:10:59.626Z,36.64
2019-06-26T07:11:59.609Z,36.45
2019-06-26T07:12:59.621Z,36.44
2019-06-26T07:13:59.615Z,36.15
2019-06-26T07:14:59.581Z,36.22
2019-06-26T07:15:59.574Z,36.42
2019-06-26T07:17:01.504Z,36.63
2019-06-26T07:17:59.554Z,36.94
2019-06-26T07:18:59.546Z,36.94
2019-06-26T07:19:59.540Z,36.41
2019-06-26T07:20:59.532Z,36.59
2019-06-26T07:21:59.517Z,36.98
2019-06-26T07:22:59.527Z,36.76
2019-06-26T07:23:59.507Z,37.32
2019-06-26T07:24:59.495Z,38.10
2019-06-26T07:25:59.486Z,37.87
2019-06-26T07:26:59.476Z,37.27
2019-06-26T07:28:02.021Z,37.07
2019-06-26T07:28:59.460Z,36.94
2019-06-26T07:29:59.453Z,36.45
2019-06-26T07:30:59.432Z,36.33
2019-06-26T07:31:59.425Z,36.64
2019-06-26T07:32:59.414Z,35.65
2019-06-26T07:33:59.419Z,35.58
2019-06-26T07:34:59.403Z,36.14
2019-06-26T07:35:59.388Z,36.63
2019-06-26T07:36:59.386Z,36.96
2019-06-26T07:38:00.306Z,36.33
2019-06-26T07:38:59.358Z,36.15
2019-06-26T07:40:02.042Z,36.41
2019-06-26T07:40:59.354Z,36.20
2019-06-26T07:41:59.325Z,36.54
2019-06-26T07:42:59.320Z,36.64
2019-06-26T07:43:59.322Z,37.00
2019-06-26T07:44:59.306Z,36.94
2019-06-26T07:45:59.306Z,36.29
2019-06-26T07:46:59.282Z,36.48
2019-06-26T07:47:59.292Z,37.19
2019-06-26T07:48:59.274Z,37.99
2019-06-26T07:49:59.329Z,37.92
2019-06-26T07:50:59.248Z,37.49
2019-06-26T07:51:59.257Z,37.79
2019-06-26T07:52:59.235Z,38.22
2019-06-26T07:53:59.238Z,37.79
2019-06-26T07:54:59.220Z,37.39
2019-06-26T07:55:59.209Z,37.00
2019-06-26T07:56:59.213Z,37.73
2019-06-26T07:57:59.244Z,38.33
2019-06-26T07:58:59.198Z,37.99
2019-06-26T07:59:59.180Z,37.91
2019-06-26T08:00:59.164Z,38.23
2019-06-26T08:01:59.146Z,38.74
2019-06-26T08:02:59.159Z,39.21
2019-06-26T08:03:59.150Z,39.45
2019-06-26T08:04:59.123Z,39.30
2019-06-26T08:05:59.113Z,39.60
2019-06-26T08:06:59.102Z,39.76
2019-06-26T08:07:59.094Z,39.76
2019-06-26T08:08:59.098Z,39.53
2019-06-26T08:09:59.094Z,39.74
2019-06-26T08:10:59.065Z,40.13
2019-06-26T08:11:59.077Z,40.53
2019-06-26T08:12:59.056Z,40.05
2019-06-26T08:13:59.041Z,38.79
2019-06-26T08:14:59.028Z,38.82
2019-06-26T08:15:59.031Z,38.37
2019-06-26T08:16:59.012Z,38.66
2019-06-26T08:18:00.925Z,38.07
2019-06-26T08:18:58.995Z,38.16
2019-06-26T08:19:58.985Z,37.73
2019-06-26T08:21:11.570Z,37.10
2019-06-26T08:21:59.973Z,36.66
2019-06-26T08:22:59.027Z,37.25
2019-06-26T08:23:58.954Z,37.92
2019-06-26T08:24:58.947Z,37.82
2019-06-26T08:25:58.937Z,37.44
2019-06-26T08:26:58.926Z,37.54
2019-06-26T08:27:58.925Z,38.25
2019-06-26T08:28:58.938Z,38.74
2019-06-26T08:29:58.901Z,38.79
2019-06-26T08:30:59.007Z,38.63
2019-06-26T08:31:58.884Z,37.69
2019-06-26T08:32:58.875Z,37.92
2019-06-26T08:33:58.889Z,38.36
2019-06-26T08:34:58.899Z,38.22
2019-06-26T08:35:58.870Z,37.67
2019-06-26T08:36:58.860Z,38.33
2019-06-26T08:38:09.968Z,38.52
2019-06-26T08:38:59.829Z,37.57
2019-06-26T08:39:58.819Z,38.17
2019-06-26T08:40:58.815Z,37.87
2019-06-26T08:41:58.803Z,38.41
2019-06-26T08:42:58.795Z,38.54
2019-06-26T08:43:58.787Z,38.82
2019-06-26T08:44:58.783Z,38.81
2019-06-26T08:45:58.769Z,38.47
2019-06-26T08:46:58.763Z,37.30
2019-06-26T08:47:58.766Z,37.30
2019-06-26T08:48:58.765Z,38.17
2019-06-26T08:49:58.747Z,38.54
2019-06-26T08:50:58.746Z,37.57
2019-06-26T08:51:58.715Z,37.31
2019-06-26T08:52:58.719Z,37.83
2019-06-26T08:53:58.713Z,38.33
2019-06-26T08:54:58.700Z,38.69
2019-06-26T08:55:58.692Z,39.09
2019-06-26T08:56:58.685Z,39.08
2019-06-26T08:57:58.675Z,39.33
2019-06-26T08:58:58.665Z,38.93
2019-06-26T08:59:58.656Z,38.60
2019-06-26T09:00:58.688Z,38.79
2019-06-26T09:01:58.638Z,38.69
2019-06-26T09:02:58.628Z,38.99
2019-06-26T09:03:58.629Z,38.84
2019-06-26T09:04:58.619Z,38.66
2019-06-26T09:05:58.612Z,39.12
2019-06-26T09:06:58.601Z,39.45
2019-06-26T09:07:58.643Z,39.74
2019-06-26T09:08:58.600Z,39.98
2019-06-26T09:09:58.582Z,40.02
2019-06-26T09:10:58.576Z,39.77
2019-06-26T09:11:58.573Z,39.17
2019-06-26T09:12:58.565Z,38.54
2019-06-26T09:13:58.559Z,39.11
2019-06-26T09:14:58.596Z,39.68
2019-06-26T09:15:58.537Z,39.17
2019-06-26T09:16:58.532Z,39.05
2019-06-26T09:17:58.513Z,38.69
2019-06-26T09:18:58.517Z,38.88
2019-06-26T09:19:58.503Z,38.79
2019-06-26T09:20:58.512Z,38.44
2019-06-26T09:21:58.487Z,38.22
2019-06-26T09:22:58.487Z,37.41
2019-06-26T09:23:58.466Z,37.82
2019-06-26T09:24:58.485Z,38.69
2019-06-26T09:25:58.484Z,38.45
2019-06-26T09:26:58.463Z,38.69
2019-06-26T09:27:58.459Z,38.20
2019-06-26T09:28:58.434Z,37.94
2019-06-26T09:29:58.429Z,37.91
2019-06-26T09:30:58.443Z,38.14
2019-06-26T09:31:58.407Z,38.28
2019-06-26T09:32:58.403Z,38.57
2019-06-26T09:33:58.391Z,38.99
2019-06-26T09:34:58.387Z,39.21
2019-06-26T09:35:58.378Z,39.06
2019-06-26T09:36:58.392Z,38.60
2019-06-26T09:37:58.385Z,38.59
2019-06-26T09:38:58.446Z,38.66
2019-06-26T09:39:58.357Z,38.69
2019-06-26T09:40:58.337Z,38.57
2019-06-26T09:41:58.341Z,38.17
2019-06-26T09:42:58.324Z,38.11
2019-06-26T09:43:58.316Z,38.11
2019-06-26T09:44:58.307Z,38.41
2019-06-26T09:45:58.381Z,38.13
2019-06-26T09:46:58.294Z,38.28
2019-06-26T09:47:58.284Z,37.94
2019-06-26T09:48:58.284Z,37.38
2019-06-26T09:49:58.298Z,37.22
2019-06-26T09:50:58.282Z,37.76
2019-06-26T09:51:58.259Z,38.33
2019-06-26T09:52:58.255Z,37.69
2019-06-26T09:53:58.287Z,37.50
2019-06-26T09:54:58.252Z,37.20
2019-06-26T09:55:58.235Z,37.70
2019-06-26T09:56:58.230Z,37.30
2019-06-26T09:57:58.230Z,37.08
2019-06-26T09:58:58.233Z,37.72
2019-06-26T09:59:58.211Z,37.70
2019-06-26T10:00:58.208Z,37.42
2019-06-26T10:01:58.226Z,37.38
2019-06-26T10:02:58.182Z,37.51
2019-06-26T10:03:58.172Z,37.58
2019-06-26T10:04:58.173Z,37.47
2019-06-26T10:05:58.161Z,37.54
2019-06-26T10:06:58.160Z,37.65
2019-06-26T10:07:58.144Z,37.92
2019-06-26T10:08:58.146Z,37.89
2019-06-26T10:09:58.158Z,38.35
2019-06-26T10:10:58.126Z,38.30
2019-06-26T10:11:58.131Z,38.14
2019-06-26T10:12:58.112Z,37.23
2019-06-26T10:13:58.106Z,37.22
2019-06-26T10:14:58.096Z,37.05
2019-06-26T10:16:00.400Z,37.44
2019-06-26T10:16:58.094Z,37.41
2019-06-26T10:17:58.079Z,37.45
2019-06-26T10:19:09.505Z,37.34
2019-06-26T10:19:59.108Z,37.50
2019-06-26T10:20:58.062Z,37.60
2019-06-26T10:21:58.054Z,37.51
2019-06-26T10:22:58.044Z,38.08
2019-06-26T10:23:58.039Z,38.63
2019-06-26T10:24:58.048Z,39.51
2019-06-26T10:25:58.019Z,39.46
2019-06-26T10:26:58.017Z,39.80
2019-06-26T10:27:58.019Z,39.20
2019-06-26T10:28:58.009Z,38.73
2019-06-26T10:29:58.005Z,38.69
2019-06-26T10:30:57.998Z,39.09
2019-06-26T10:31:57.984Z,39.04
2019-06-26T10:32:57.985Z,39.62
2019-06-26T10:33:57.972Z,38.57
2019-06-26T10:34:57.966Z,38.30
2019-06-26T10:35:57.964Z,38.29
2019-06-26T10:36:57.973Z,38.71
2019-06-26T10:37:57.936Z,38.81
2019-06-26T10:38:57.944Z,38.33
2019-06-26T10:39:57.939Z,38.13
2019-06-26T10:40:57.922Z,37.92
2019-06-26T10:41:57.929Z,37.89
2019-06-26T10:42:57.908Z,38.52
2019-06-26T10:43:57.904Z,38.44
2019-06-26T10:44:57.903Z,39.20
2019-06-26T10:45:57.918Z,39.19
2019-06-26T10:46:57.928Z,39.33
2019-06-26T10:47:57.875Z,39.02
2019-06-26T10:48:57.869Z,38.52
2019-06-26T10:49:57.866Z,38.41
2019-06-26T10:50:58.994Z,37.65
2019-06-26T10:51:57.843Z,37.70
2019-06-26T10:52:57.842Z,38.48
2019-06-26T10:53:57.836Z,38.44
2019-06-26T10:54:57.945Z,38.78
2019-06-26T10:55:57.824Z,39.28
2019-06-26T10:56:57.814Z,38.89
2019-06-26T10:57:57.800Z,38.93
2019-06-26T10:58:57.799Z,39.14
2019-06-26T10:59:57.799Z,38.98
2019-06-26T11:00:57.787Z,38.89
2019-06-26T11:01:57.781Z,38.10
2019-06-26T11:02:57.801Z,37.57
2019-06-26T11:03:57.765Z,37.67
2019-06-26T11:04:57.765Z,38.08
2019-06-26T11:05:57.797Z,38.39
2019-06-26T11:06:57.749Z,38.36
2019-06-26T11:07:57.747Z,38.36
2019-06-26T11:08:57.734Z,38.07
2019-06-26T11:09:57.729Z,38.36
2019-06-26T11:10:57.723Z,38.67
2019-06-26T11:11:57.728Z,38.08
2019-06-26T11:12:57.728Z,37.83
2019-06-26T11:13:57.709Z,38.41
2019-06-26T11:14:57.747Z,38.88
2019-06-26T11:15:57.698Z,38.42
2019-06-26T11:16:57.697Z,38.92
2019-06-26T11:17:57.681Z,38.79
2019-06-26T11:18:57.674Z,38.74
2019-06-26T11:19:57.674Z,38.22
2019-06-26T11:20:57.666Z,37.91
2019-06-26T11:21:57.680Z,37.92
2019-06-26T11:22:57.655Z,38.07
2019-06-26T11:23:57.639Z,38.18
2019-06-26T11:24:57.635Z,38.39
2019-06-26T11:25:57.643Z,38.85
2019-06-26T11:26:57.624Z,38.57
2019-06-26T11:27:57.627Z,38.82
2019-06-26T11:28:57.606Z,38.89
2019-06-26T11:29:57.610Z,38.37
2019-06-26T11:30:57.601Z,38.37
2019-06-26T11:31:57.585Z,38.88
2019-06-26T11:32:57.593Z,38.81
2019-06-26T11:33:57.573Z,39.35
2019-06-26T11:34:57.564Z,39.20
2019-06-26T11:35:57.558Z,39.11
2019-06-26T11:37:03.746Z,39.06
2019-06-26T11:37:58.541Z,38.55
2019-06-26T11:38:57.549Z,38.50
2019-06-26T11:39:57.537Z,38.30
2019-06-26T11:40:57.523Z,38.47
2019-06-26T11:41:57.520Z,38.55
2019-06-26T11:42:57.514Z,38.10
2019-06-26T11:43:57.509Z,38.07
2019-06-26T11:44:57.523Z,37.73
2019-06-26T11:45:57.497Z,37.94
2019-06-26T11:46:57.489Z,37.94
2019-06-26T11:47:57.482Z,38.18
2019-06-26T11:48:57.497Z,37.99
2019-06-26T11:50:00.140Z,37.98
2019-06-26T11:50:57.464Z,38.48
2019-06-26T11:51:57.458Z,38.48
2019-06-26T11:52:57.498Z,38.48
2019-06-26T11:53:59.045Z,38.63
2019-06-26T11:55:02.613Z,38.42
2019-06-26T11:55:58.471Z,38.44
2019-06-26T11:56:57.426Z,38.36
2019-06-26T11:57:57.419Z,37.85
2019-06-26T11:58:57.427Z,38.20
2019-06-26T11:59:57.418Z,38.51
2019-06-26T12:00:57.469Z,38.36
2019-06-26T12:01:57.419Z,38.67
2019-06-26T12:02:57.493Z,39.02
2019-06-26T12:03:57.401Z,38.36
2019-06-26T12:04:57.384Z,37.83
2019-06-26T12:06:12.012Z,38.17
2019-06-26T12:06:58.373Z,38.48
2019-06-26T12:07:57.381Z,37.91
2019-06-26T12:08:57.458Z,38.14
2019-06-26T12:09:57.444Z,38.29
2019-06-26T12:10:57.358Z,38.70
2019-06-26T12:11:57.339Z,38.76
2019-06-26T12:12:57.334Z,38.84
2019-06-26T12:13:57.365Z,38.74
2019-06-26T12:14:57.346Z,38.64
2019-06-26T12:15:57.319Z,38.28
2019-06-26T12:16:57.305Z,38.44
2019-06-26T12:17:57.297Z,38.44
2019-06-26T12:18:57.295Z,38.13
2019-06-26T12:19:57.295Z,38.60
2019-06-26T12:20:57.280Z,39.02
2019-06-26T12:21:57.268Z,38.52
2019-06-26T12:22:57.265Z,38.82
2019-06-26T12:23:57.255Z,38.64
2019-06-26T12:24:57.251Z,39.33
2019-06-26T12:25:57.356Z,39.65
2019-06-26T12:26:57.236Z,39.82
2019-06-26T12:27:57.228Z,39.83
2019-06-26T12:28:57.228Z,40.03
2019-06-26T12:29:57.213Z,38.84
2019-06-26T12:30:57.211Z,37.96
2019-06-26T12:31:57.207Z,38.51
2019-06-26T12:33:03.547Z,38.59
2019-06-26T12:33:58.185Z,38.25
2019-06-26T12:34:57.184Z,38.99
2019-06-26T12:35:57.171Z,39.20
2019-06-26T12:36:57.167Z,38.88
2019-06-26T12:37:57.181Z,38.85
2019-06-26T12:38:57.152Z,38.23
2019-06-26T12:39:57.147Z,37.91
2019-06-26T12:40:57.165Z,38.25
2019-06-26T12:41:57.138Z,38.35
2019-06-26T12:42:57.124Z,39.35
2019-06-26T12:43:57.118Z,39.76
2019-06-26T12:44:57.123Z,40.40
2019-06-26T12:45:57.105Z,39.09
2019-06-26T12:46:57.101Z,38.14
2019-06-26T12:47:57.159Z,38.23
2019-06-26T12:48:57.087Z,38.59
2019-06-26T12:49:57.074Z,39.43
2019-06-26T12:50:57.074Z,38.86
2019-06-26T12:51:57.062Z,39.06